Time;durP1;ratioP1;P1;durP2;ratioP2;P2;SDS_P1;SDS_P2;PMS_P1;PMS_P2;Temp;Humidity;BMP_temperature;BMP_pressure;BME280_temperature;BME280_humidity;BME280_pressure;Samples;Min_cycle;Max_cycle;Signal;HPM_P1;HPM_P2
2022/03/31 00:01:36;;;;;;;14.52;1.52;;;;;;;;;;5040791;28;20045;-66
2022/03/31 00:04:03;;;;;;;9.73;1.27;;;;;;;;;;5069216;28;20771;-65
2022/03/31 00:06:30;;;;;;;5.57;1.20;;;;;;;;;;5042162;28;20048;-66
2022/03/31 00:08:57;;;;;;;4.97;1.30;;;;;;;;;;5027291;28;20044;-67
2022/03/31 00:11:24;;;;;;;6.47;1.02;;;;;;;;;;5044270;28;20070;-65
2022/03/31 00:13:50;;;;;;;4.18;1.00;;;;;;;;;;5043799;28;20037;-66
2022/03/31 00:16:17;;;;;;;5.57;1.20;;;;;;;;;;5031845;28;20037;-66
2022/03/31 00:18:46;;;;;;;7.95;1.40;;;;;;;;;;5042342;28;20511;-66
2022/03/31 00:24:17;;;;;;;5.28;1.10;;;;;;;;;;5032182;28;20051;-64
2022/03/31 00:26:44;;;;;;;8.23;0.98;;;;;;;;;;5041824;28;20037;-66
2022/03/31 00:29:10;;;;;;;3.03;0.70;;;;;;;;;;5043520;28;20044;-65
2022/03/31 00:31:38;;;;;;;6.00;0.93;;;;;;;;;;5033029;28;20040;-65
2022/03/31 00:34:05;;;;;;;3.97;0.80;;;;;;;;;;5042573;28;20398;-65
2022/03/31 00:36:32;;;;;;;3.63;0.80;;;;;;;;;;5031720;28;20049;-65
2022/03/31 00:41:44;;;;;;;5.55;0.90;;;;;;;;;;5017070;28;20103;-64
2022/03/31 00:44:11;;;;;;;4.65;0.90;;;;;;;;;;5026442;28;20041;-64
2022/03/31 00:46:46;;;;;;;8.80;1.02;;;;;;;;;;5041671;28;20111;-65
2022/03/31 00:49:16;;;;;;;6.63;1.20;;;;;;;;;;5041918;28;20444;-66
2022/03/31 00:51:42;;;;;;;5.43;0.90;;;;;;;;;;5057768;28;20045;-65
2022/03/31 00:54:10;;;;;;;11.18;1.10;;;;;;;;;;5041634;28;20516;-65
2022/03/31 00:56:37;;;;;;;7.03;1.02;;;;;;;;;;5039334;28;20078;-65
2022/03/31 00:59:08;;;;;;;7.28;1.00;;;;;;;;;;5035342;28;20071;-65
2022/03/31 01:01:36;;;;;;;3.63;1.10;;;;;;;;;;5033717;28;20121;-65
2022/03/31 01:04:03;;;;;;;21.52;1.40;;;;;;;;;;5042268;28;20048;-66
2022/03/31 01:06:30;;;;;;;15.93;1.55;;;;;;;;;;5043422;28;20036;-64
2022/03/31 01:08:57;;;;;;;6.45;0.90;;;;;;;;;;5045184;28;20501;-65
2022/03/31 01:11:24;;;;;;;8.82;1.25;;;;;;;;;;5043861;28;20470;-65
2022/03/31 01:13:50;;;;;;;8.02;1.27;;;;;;;;;;5055253;28;20041;-65
2022/03/31 01:16:17;;;;;;;9.98;1.30;;;;;;;;;;5035382;28;20057;-65
2022/03/31 01:18:44;;;;;;;22.48;1.60;;;;;;;;;;5057494;28;20033;-65
2022/03/31 01:21:11;;;;;;;27.23;2.30;;;;;;;;;;5047625;28;20401;-64
2022/03/31 01:23:38;;;;;;;43.47;3.97;;;;;;;;;;5045049;28;20087;-64
2022/03/31 01:26:11;;;;;;;72.53;7.22;;;;;;;;;;5040229;28;20048;-64
2022/03/31 01:28:37;;;;;;;;;;;;;;;;;;5044340;28;20083;-65
2022/03/31 01:31:04;;;;;;;27.05;3.33;;;;;;;;;;5047243;28;20005;-67
2022/03/31 01:33:31;;;;;;;34.85;3.47;;;;;;;;;;5034709;28;20120;-64
2022/03/31 01:35:59;;;;;;;12.23;1.45;;;;;;;;;;5045053;28;20041;-64
2022/03/31 01:38:26;;;;;;;17.00;1.75;;;;;;;;;;5044912;28;20060;-64
2022/03/31 01:40:53;;;;;;;8.55;1.23;;;;;;;;;;5047781;28;20711;-64
2022/03/31 01:43:21;;;;;;;5.82;0.98;;;;;;;;;;5036449;28;20033;-64
2022/03/31 01:45:52;;;;;;;7.85;0.88;;;;;;;;;;5046927;28;20045;-65
2022/03/31 01:48:19;;;;;;;5.90;0.80;;;;;;;;;;5046727;28;20112;-65
2022/03/31 01:50:45;;;;;;;3.58;0.60;;;;;;;;;;5046459;28;20044;-65
2022/03/31 01:53:14;;;;;;;7.03;0.70;;;;;;;;;;5046680;28;20052;-64
2022/03/31 01:55:41;;;;;;;8.40;0.70;;;;;;;;;;5045288;28;20040;-64
2022/03/31 01:58:08;;;;;;;4.85;0.63;;;;;;;;;;5036240;28;20045;-65
2022/03/31 02:00:35;;;;;;;3.08;0.60;;;;;;;;;;5047023;28;20033;-65
2022/03/31 02:03:03;;;;;;;1.65;0.40;;;;;;;;;;5039542;28;20406;-65
2022/03/31 02:05:29;;;;;;;4.85;0.60;;;;;;;;;;5031534;28;20875;-64
2022/03/31 02:07:57;;;;;;;3.20;0.60;;;;;;;;;;5044818;28;20064;-65
2022/03/31 02:10:27;;;;;;;2.65;0.50;;;;;;;;;;5043535;28;20037;-65
2022/03/31 02:12:54;;;;;;;1.60;0.40;;;;;;;;;;5044789;28;20513;-64
2022/03/31 02:15:22;;;;;;;5.32;0.60;;;;;;;;;;5058622;28;20049;-64
2022/03/31 02:17:49;;;;;;;3.58;0.50;;;;;;;;;;5031229;28;20042;-63
2022/03/31 02:20:16;;;;;;;1.30;0.50;;;;;;;;;;5039408;28;20051;-64
2022/03/31 02:22:43;;;;;;;3.92;0.57;;;;;;;;;;5041498;28;20051;-64
2022/03/31 02:25:11;;;;;;;4.65;0.50;;;;;;;;;;5043140;28;20799;-64
2022/03/31 02:27:38;;;;;;;3.20;0.60;;;;;;;;;;5041482;28;20051;-64
2022/03/31 02:30:05;;;;;;;1.02;0.40;;;;;;;;;;5042620;28;20044;-64
2022/03/31 02:32:32;;;;;;;2.05;0.40;;;;;;;;;;5057497;28;20068;-65
2022/03/31 02:34:59;;;;;;;1.05;0.40;;;;;;;;;;5035344;28;20509;-65
2022/03/31 02:37:26;;;;;;;0.75;0.32;;;;;;;;;;5017891;28;20512;-66
2022/03/31 02:39:53;;;;;;;0.80;0.40;;;;;;;;;;5041742;28;20123;-65
2022/03/31 02:42:20;;;;;;;2.10;0.50;;;;;;;;;;5042662;28;20067;-65
2022/03/31 02:44:46;;;;;;;3.25;0.50;;;;;;;;;;5040653;28;20051;-64
2022/03/31 02:47:13;;;;;;;1.98;0.50;;;;;;;;;;5042703;28;20033;-65
2022/03/31 02:49:40;;;;;;;3.72;0.57;;;;;;;;;;5043381;28;20501;-63
2022/03/31 02:52:07;;;;;;;0.85;0.40;;;;;;;;;;5044078;28;21088;-64
2022/03/31 02:57:19;;;;;;;4.45;0.65;;;;;;;;;;5042926;28;20055;-64
2022/03/31 02:59:46;;;;;;;1.38;0.50;;;;;;;;;;5042116;28;20113;-65
2022/03/31 03:02:13;;;;;;;1.25;0.50;;;;;;;;;;5055268;28;20059;-64
2022/03/31 03:04:40;;;;;;;1.80;0.47;;;;;;;;;;5040050;28;20041;-62
2022/03/31 03:07:06;;;;;;;1.40;0.40;;;;;;;;;;5039023;28;20534;-64
2022/03/31 03:09:33;;;;;;;1.58;0.50;;;;;;;;;;5041401;28;20082;-64
2022/03/31 03:12:00;;;;;;;2.00;0.50;;;;;;;;;;5044425;28;20112;-64
2022/03/31 03:14:27;;;;;;;1.58;0.60;;;;;;;;;;5041494;28;20048;-65
2022/03/31 03:16:54;;;;;;;2.13;0.50;;;;;;;;;;5043249;28;20048;-63
2022/03/31 03:19:20;;;;;;;1.35;0.47;;;;;;;;;;5042820;28;20095;-63
2022/03/31 03:21:47;;;;;;;2.80;0.50;;;;;;;;;;5033003;28;20377;-64
2022/03/31 03:24:14;;;;;;;2.30;0.60;;;;;;;;;;5033869;28;20065;-64
2022/03/31 03:26:41;;;;;;;1.42;0.50;;;;;;;;;;5040740;28;22410;-65
2022/03/31 03:29:08;;;;;;;1.67;0.50;;;;;;;;;;5057295;28;20044;-65
2022/03/31 03:31:35;;;;;;;2.10;0.40;;;;;;;;;;5042771;28;20091;-63
2022/03/31 03:34:01;;;;;;;3.80;0.57;;;;;;;;;;5041654;28;20049;-63
2022/03/31 03:36:28;;;;;;;1.65;0.60;;;;;;;;;;5041987;28;20064;-64
2022/03/31 03:38:55;;;;;;;10.25;1.15;;;;;;;;;;5041742;28;20445;-63
2022/03/31 03:41:22;;;;;;;1.45;0.50;;;;;;;;;;5041421;28;20041;-64
2022/03/31 03:43:48;;;;;;;2.63;0.68;;;;;;;;;;5042652;28;20037;-64
2022/03/31 03:46:15;;;;;;;2.50;0.60;;;;;;;;;;5044038;28;20052;-63
2022/03/31 03:48:42;;;;;;;2.03;0.60;;;;;;;;;;5020513;28;20055;-64
2022/03/31 03:51:10;;;;;;;2.30;0.60;;;;;;;;;;5021792;28;20041;-64
2022/03/31 03:53:36;;;;;;;3.05;0.50;;;;;;;;;;5019395;28;20543;-63
2022/03/31 03:56:03;;;;;;;3.15;0.70;;;;;;;;;;5036674;28;20053;-64
2022/03/31 03:58:30;;;;;;;1.98;0.70;;;;;;;;;;5039094;28;20053;-63
2022/03/31 04:00:57;;;;;;;1.80;0.60;;;;;;;;;;5036837;28;20033;-64
2022/03/31 04:03:23;;;;;;;3.15;0.60;;;;;;;;;;5036123;28;20044;-63
2022/03/31 04:05:50;;;;;;;4.55;0.70;;;;;;;;;;5041677;28;20041;-63
2022/03/31 04:08:17;;;;;;;1.25;0.55;;;;;;;;;;5033784;28;20973;-64
2022/03/31 04:10:44;;;;;;;1.35;0.40;;;;;;;;;;5042476;28;20107;-64
2022/03/31 04:13:11;;;;;;;1.52;0.50;;;;;;;;;;5039187;28;20695;-64
2022/03/31 04:15:38;;;;;;;1.63;0.60;;;;;;;;;;5041096;28;20143;-64
2022/03/31 04:18:07;;;;;;;2.10;0.60;;;;;;;;;;5041095;28;20103;-63
2022/03/31 04:20:33;;;;;;;3.70;0.63;;;;;;;;;;5040692;28;20025;-63
2022/03/31 04:23:01;;;;;;;1.70;0.57;;;;;;;;;;5026374;28;20460;-63
2022/03/31 04:25:28;;;;;;;5.15;0.60;;;;;;;;;;5028723;28;20039;-62
2022/03/31 04:27:54;;;;;;;2.78;0.50;;;;;;;;;;5056781;28;20396;-63
2022/03/31 04:30:21;;;;;;;1.77;0.57;;;;;;;;;;5041464;28;20041;-63
2022/03/31 04:32:49;;;;;;;0.93;0.40;;;;;;;;;;5019465;28;20041;-63
2022/03/31 04:35:16;;;;;;;1.73;0.60;;;;;;;;;;5037738;28;20465;-65
2022/03/31 04:37:42;;;;;;;4.75;0.68;;;;;;;;;;5020605;28;20889;-63
2022/03/31 04:40:09;;;;;;;1.45;0.50;;;;;;;;;;5042403;28;20516;-63
2022/03/31 04:42:37;;;;;;;15.68;1.00;;;;;;;;;;5031870;28;20064;-63
2022/03/31 04:45:04;;;;;;;3.28;0.70;;;;;;;;;;5041824;28;20103;-62
2022/03/31 04:47:31;;;;;;;1.85;0.47;;;;;;;;;;5056276;28;20493;-64
2022/03/31 04:49:58;;;;;;;1.20;0.40;;;;;;;;;;5033387;28;20461;-64
2022/03/31 04:52:25;;;;;;;2.70;0.52;;;;;;;;;;5041741;28;20070;-63
2022/03/31 04:54:52;;;;;;;0.98;0.43;;;;;;;;;;5045586;28;20048;-63
2022/03/31 04:57:20;;;;;;;1.52;0.40;;;;;;;;;;5047106;28;20073;-66
2022/03/31 04:59:47;;;;;;;1.38;0.40;;;;;;;;;;5030762;28;20076;-63
2022/03/31 05:02:14;;;;;;;1.63;0.43;;;;;;;;;;5022015;28;20034;-65
2022/03/31 05:04:41;;;;;;;1.05;0.40;;;;;;;;;;5033839;28;20041;-64
2022/03/31 05:07:08;;;;;;;1.38;0.47;;;;;;;;;;5046230;28;20305;-64
2022/03/31 05:09:36;;;;;;;1.73;0.40;;;;;;;;;;5045106;28;20045;-64
2022/03/31 05:12:02;;;;;;;1.70;0.43;;;;;;;;;;5058249;28;20144;-64
2022/03/31 05:14:29;;;;;;;0.85;0.40;;;;;;;;;;5045953;28;20127;-63
2022/03/31 05:16:56;;;;;;;2.40;0.60;;;;;;;;;;5044349;28;20099;-64
2022/03/31 05:19:22;;;;;;;0.95;0.40;;;;;;;;;;5046828;28;20152;-63
2022/03/31 05:21:49;;;;;;;0.50;0.30;;;;;;;;;;5064038;28;20051;-63
2022/03/31 05:24:16;;;;;;;1.25;0.40;;;;;;;;;;5048047;28;20033;-63
2022/03/31 05:26:43;;;;;;;1.30;0.50;;;;;;;;;;5057518;28;20044;-62
2022/03/31 05:29:10;;;;;;;0.57;0.40;;;;;;;;;;5046225;28;20529;-63
2022/03/31 05:31:37;;;;;;;1.45;0.40;;;;;;;;;;5043906;28;20033;-63
2022/03/31 05:34:03;;;;;;;0.47;0.30;;;;;;;;;;5046794;28;20044;-62
2022/03/31 05:36:30;;;;;;;0.98;0.40;;;;;;;;;;5046495;28;20383;-64
2022/03/31 05:38:57;;;;;;;0.63;0.30;;;;;;;;;;5045542;28;20469;-64
2022/03/31 05:41:26;;;;;;;1.13;0.40;;;;;;;;;;5045963;28;20127;-64
2022/03/31 05:43:53;;;;;;;1.23;0.50;;;;;;;;;;5026118;28;20048;-65
2022/03/31 05:46:21;;;;;;;3.60;0.43;;;;;;;;;;5043485;28;20039;-65
2022/03/31 05:48:48;;;;;;;1.00;0.30;;;;;;;;;;5047027;28;20041;-65
2022/03/31 05:51:15;;;;;;;0.55;0.32;;;;;;;;;;5062706;28;20169;-64
2022/03/31 05:53:42;;;;;;;1.05;0.50;;;;;;;;;;5046565;28;20044;-64
2022/03/31 05:56:08;;;;;;;1.10;0.47;;;;;;;;;;5045531;28;20059;-64
2022/03/31 05:58:35;;;;;;;0.45;0.30;;;;;;;;;;5027920;28;20075;-64
2022/03/31 06:01:04;;;;;;;0.32;0.30;;;;;;;;;;5048088;28;20071;-65
2022/03/31 06:03:31;;;;;;;1.05;0.40;;;;;;;;;;5046864;28;20135;-64
2022/03/31 06:05:58;;;;;;;0.60;0.30;;;;;;;;;;5047400;28;20044;-64
2022/03/31 06:08:25;;;;;;;1.40;0.40;;;;;;;;;;5057952;28;20066;-64
2022/03/31 06:10:52;;;;;;;0.77;0.35;;;;;;;;;;5048856;28;20107;-64
2022/03/31 06:13:18;;;;;;;1.05;0.30;;;;;;;;;;5045505;28;20037;-64
2022/03/31 06:15:45;;;;;;;4.45;0.40;;;;;;;;;;5046028;28;20107;-63
2022/03/31 06:18:12;;;;;;;0.73;0.40;;;;;;;;;;5046344;28;20045;-63
2022/03/31 06:20:39;;;;;;;1.02;0.40;;;;;;;;;;5035864;28;20117;-63
2022/03/31 06:23:06;;;;;;;0.70;0.40;;;;;;;;;;5047117;28;20040;-64
2022/03/31 06:25:32;;;;;;;1.10;0.35;;;;;;;;;;5045799;28;20033;-64
2022/03/31 06:27:59;;;;;;;0.30;0.30;;;;;;;;;;5044700;28;20048;-64
2022/03/31 06:30:26;;;;;;;0.80;0.30;;;;;;;;;;5046353;28;20561;-64
2022/03/31 06:32:53;;;;;;;0.60;0.30;;;;;;;;;;5045406;28;20068;-64
2022/03/31 06:35:20;;;;;;;0.85;0.40;;;;;;;;;;5045545;28;20037;-64
2022/03/31 06:37:47;;;;;;;1.45;0.50;;;;;;;;;;5035434;28;20128;-64
2022/03/31 06:40:14;;;;;;;0.80;0.40;;;;;;;;;;5044785;28;20041;-64
2022/03/31 06:42:42;;;;;;;2.40;0.50;;;;;;;;;;5043931;28;20049;-64
2022/03/31 06:45:12;;;;;;;1.08;0.40;;;;;;;;;;5045538;28;20036;-64
2022/03/31 06:47:42;;;;;;;2.30;0.50;;;;;;;;;;5044804;28;20091;-63
2022/03/31 06:50:09;;;;;;;1.08;0.40;;;;;;;;;;5046349;28;20055;-64
2022/03/31 06:52:36;;;;;;;1.17;0.40;;;;;;;;;;5043173;28;20886;-63
2022/03/31 06:55:03;;;;;;;1.40;0.40;;;;;;;;;;5037582;28;20037;-64
2022/03/31 06:57:30;;;;;;;3.53;0.52;;;;;;;;;;5043898;28;20143;-63
2022/03/31 06:59:56;;;;;;;0.98;0.40;;;;;;;;;;5046135;28;20040;-63
2022/03/31 07:02:23;;;;;;;1.27;0.50;;;;;;;;;;5044572;28;20029;-64
2022/03/31 07:04:50;;;;;;;0.68;0.40;;;;;;;;;;5057685;28;20037;-63
2022/03/31 07:07:17;;;;;;;1.90;0.60;;;;;;;;;;5043278;28;20028;-63
2022/03/31 07:09:43;;;;;;;0.98;0.43;;;;;;;;;;5044222;28;20041;-63
2022/03/31 07:12:11;;;;;;;1.73;0.52;;;;;;;;;;5036726;28;20044;-64
2022/03/31 07:14:38;;;;;;;1.52;0.40;;;;;;;;;;5042045;28;20045;-63
2022/03/31 07:17:05;;;;;;;1.42;0.50;;;;;;;;;;5044069;28;20052;-64
2022/03/31 07:19:32;;;;;;;1.23;0.47;;;;;;;;;;5045110;28;20068;-64
2022/03/31 07:21:58;;;;;;;1.63;0.60;;;;;;;;;;5057020;28;20033;-63
2022/03/31 07:24:25;;;;;;;1.63;0.50;;;;;;;;;;5045760;28;20185;-63
2022/03/31 07:26:52;;;;;;;1.65;0.50;;;;;;;;;;5044814;28;20082;-63
2022/03/31 07:29:18;;;;;;;1.52;0.50;;;;;;;;;;5025368;28;20120;-64
2022/03/31 07:31:45;;;;;;;6.35;0.80;;;;;;;;;;5035955;28;20033;-63
2022/03/31 07:34:12;;;;;;;1.17;0.40;;;;;;;;;;5043181;28;20050;-63
2022/03/31 07:36:39;;;;;;;2.92;0.60;;;;;;;;;;5044146;28;20167;-63
2022/03/31 07:39:08;;;;;;;2.55;0.70;;;;;;;;;;5059646;28;20059;-62
2022/03/31 07:41:34;;;;;;;0.85;0.40;;;;;;;;;;5032021;28;20117;-63
2022/03/31 07:44:01;;;;;;;1.73;0.52;;;;;;;;;;5043718;28;20183;-63
2022/03/31 07:46:32;;;;;;;2.90;0.60;;;;;;;;;;5043952;28;20080;-62
2022/03/31 07:48:59;;;;;;;1.67;0.60;;;;;;;;;;5027823;28;20041;-63
2022/03/31 07:51:26;;;;;;;3.60;0.60;;;;;;;;;;5042588;28;20115;-63
2022/03/31 07:53:53;;;;;;;1.50;0.50;;;;;;;;;;5045336;28;20120;-63
2022/03/31 07:56:20;;;;;;;2.63;0.57;;;;;;;;;;5044936;28;20069;-62
2022/03/31 07:58:47;;;;;;;2.03;0.70;;;;;;;;;;5034262;28;20037;-63
2022/03/31 08:01:14;;;;;;;2.40;0.55;;;;;;;;;;5044844;28;20047;-63
2022/03/31 08:03:40;;;;;;;1.30;0.50;;;;;;;;;;5042053;28;20049;-61
2022/03/31 08:06:08;;;;;;;1.42;0.50;;;;;;;;;;5047222;28;20041;-62
2022/03/31 08:08:35;;;;;;;2.28;0.70;;;;;;;;;;5048370;28;20314;-63
2022/03/31 08:11:01;;;;;;;1.38;0.40;;;;;;;;;;5040438;28;20064;-62
2022/03/31 08:13:29;;;;;;;1.92;0.70;;;;;;;;;;5030380;28;20111;-62
2022/03/31 08:15:58;;;;;;;1.45;0.45;;;;;;;;;;5045525;28;20633;-62
2022/03/31 08:18:34;;;;;;;1.23;0.40;;;;;;;;;;5034987;28;20140;-62
2022/03/31 08:21:02;;;;;;;1.75;0.60;;;;;;;;;;5044779;28;20045;-62
2022/03/31 08:23:28;;;;;;;2.53;0.70;;;;;;;;;;5042620;28;20052;-64
2022/03/31 08:25:55;;;;;;;2.05;0.60;;;;;;;;;;5055806;28;20051;-63
2022/03/31 08:28:22;;;;;;;1.58;0.70;;;;;;;;;;5041663;28;20045;-63
2022/03/31 08:30:49;;;;;;;1.95;0.60;;;;;;;;;;5034231;28;20036;-63
2022/03/31 08:33:16;;;;;;;2.22;0.50;;;;;;;;;;5043512;28;20033;-62
2022/03/31 08:35:42;;;;;;;2.53;0.52;;;;;;;;;;5044616;28;20039;-63
2022/03/31 08:38:09;;;;;;;2.55;0.52;;;;;;;;;;5026342;28;20099;-62
2022/03/31 08:40:36;;;;;;;1.27;0.40;;;;;;;;;;5041593;28;20037;-62
2022/03/31 08:43:03;;;;;;;1.75;0.60;;;;;;;;;;5042492;28;20596;-62
2022/03/31 08:45:33;;;;;;;2.10;0.47;;;;;;;;;;5044656;28;20847;-63
2022/03/31 08:48:01;;;;;;;1.80;0.52;;;;;;;;;;5046270;28;20551;-63
2022/03/31 08:50:28;;;;;;;1.83;0.40;;;;;;;;;;5032271;28;20034;-63
2022/03/31 08:52:54;;;;;;;1.35;0.50;;;;;;;;;;5044463;28;20118;-60
2022/03/31 08:55:21;;;;;;;1.60;0.50;;;;;;;;;;5042236;28;20152;-63
2022/03/31 08:57:49;;;;;;;1.15;0.40;;;;;;;;;;5023760;28;21894;-62
2022/03/31 09:00:17;;;;;;;0.52;0.38;;;;;;;;;;5044083;28;20033;-62
2022/03/31 09:02:58;;;;;;;1.15;0.43;;;;;;;;;;5043243;28;20056;-63
2022/03/31 09:05:25;;;;;;;1.35;0.50;;;;;;;;;;5033741;28;20047;-63
2022/03/31 09:08:02;;;;;;;1.05;0.40;;;;;;;;;;5043452;28;20164;-63
2022/03/31 09:10:30;;;;;;;1.27;0.50;;;;;;;;;;5044269;28;20071;-63
2022/03/31 09:12:59;;;;;;;1.05;0.40;;;;;;;;;;5045191;28;20749;-62
2022/03/31 09:15:26;;;;;;;1.92;0.43;;;;;;;;;;5043903;28;20772;-64
2022/03/31 09:17:54;;;;;;;0.52;0.40;;;;;;;;;;5042037;28;20080;-62
2022/03/31 09:20:21;;;;;;;1.00;0.40;;;;;;;;;;5033461;28;20036;-62
2022/03/31 09:22:51;;;;;;;1.27;0.40;;;;;;;;;;5041460;28;20086;-62
2022/03/31 09:25:25;;;;;;;0.30;0.30;;;;;;;;;;5043566;28;20032;-62
2022/03/31 09:27:52;;;;;;;1.20;0.47;;;;;;;;;;5033419;28;20037;-62
2022/03/31 09:30:19;;;;;;;0.95;0.40;;;;;;;;;;5043372;28;20037;-62
2022/03/31 09:32:52;;;;;;;0.82;0.40;;;;;;;;;;5041307;28;20040;-62
2022/03/31 09:35:25;;;;;;;1.52;0.50;;;;;;;;;;5044153;28;20413;-62
2022/03/31 09:37:55;;;;;;;1.42;0.40;;;;;;;;;;5043434;28;20486;-62
2022/03/31 09:40:22;;;;;;;0.95;0.40;;;;;;;;;;5044713;28;20501;-63
2022/03/31 09:42:59;;;;;;;1.80;0.50;;;;;;;;;;5046280;28;20937;-63
2022/03/31 09:45:37;;;;;;;1.35;0.40;;;;;;;;;;5033869;28;20052;-63
2022/03/31 09:48:03;;;;;;;2.08;0.50;;;;;;;;;;5021612;28;20056;-63
2022/03/31 09:50:36;;;;;;;0.75;0.40;;;;;;;;;;5041445;28;20068;-63
2022/03/31 09:53:04;;;;;;;1.23;0.40;;;;;;;;;;5045519;28;20072;-63
2022/03/31 09:55:31;;;;;;;1.42;0.50;;;;;;;;;;5050941;28;20063;-63
2022/03/31 09:57:58;;;;;;;1.73;0.50;;;;;;;;;;5038950;28;20054;-64
2022/03/31 10:00:25;;;;;;;1.05;0.40;;;;;;;;;;5033250;28;20044;-63
2022/03/31 10:02:52;;;;;;;0.73;0.40;;;;;;;;;;5035571;28;20107;-63
2022/03/31 10:05:19;;;;;;;0.95;0.32;;;;;;;;;;5045954;28;20033;-64
2022/03/31 10:07:46;;;;;;;1.75;0.50;;;;;;;;;;5046662;28;20510;-63
2022/03/31 10:10:13;;;;;;;2.03;0.60;;;;;;;;;;5048352;28;20048;-62
2022/03/31 10:12:51;;;;;;;1.70;0.68;;;;;;;;;;5046462;28;21171;-63
2022/03/31 10:15:24;;;;;;;1.10;0.40;;;;;;;;;;5048086;28;20500;-63
2022/03/31 10:17:50;;;;;;;2.30;0.60;;;;;;;;;;5031098;28;20065;-63
2022/03/31 10:20:20;;;;;;;1.02;0.40;;;;;;;;;;5032631;28;20044;-63
2022/03/31 10:25:42;;;;;;;1.45;0.50;;;;;;;;;;5044663;28;20094;-64
2022/03/31 10:28:16;;;;;;;0.88;0.45;;;;;;;;;;5045965;28;20059;-63
2022/03/31 10:30:44;;;;;;;;;;;;;;;;;;5037611;28;20036;-64
2022/03/31 10:33:11;;;;;;;1.05;0.47;;;;;;;;;;5037779;28;19917;-63
2022/03/31 10:35:39;;;;;;;8.15;0.57;;;;;;;;;;5044281;28;20041;-64
2022/03/31 10:38:13;;;;;;;1.17;0.40;;;;;;;;;;5047092;28;20053;-61
2022/03/31 10:40:44;;;;;;;1.27;0.50;;;;;;;;;;5039498;28;20050;-62
2022/03/31 10:43:26;;;;;;;1.35;0.50;;;;;;;;;;5042858;28;20101;-63
2022/03/31 10:45:54;;;;;;;3.20;0.60;;;;;;;;;;5041011;28;20033;-63
2022/03/31 10:48:21;;;;;;;1.50;0.50;;;;;;;;;;5047908;28;20483;-63
2022/03/31 10:51:07;;;;;;;2.20;0.50;;;;;;;;;;5047958;28;20037;-63
2022/03/31 10:53:35;;;;;;;1.73;0.50;;;;;;;;;;5046716;28;20048;-62
2022/03/31 10:56:03;;;;;;;1.00;0.43;;;;;;;;;;5046520;28;20099;-62
2022/03/31 10:58:31;;;;;;;1.85;0.45;;;;;;;;;;5034943;28;20124;-63
2022/03/31 11:01:06;;;;;;;1.83;0.50;;;;;;;;;;5047872;28;20048;-63
2022/03/31 11:03:32;;;;;;;1.20;0.52;;;;;;;;;;5044797;28;20044;-64
2022/03/31 11:06:04;;;;;;;2.17;0.60;;;;;;;;;;5048030;28;20230;-63
2022/03/31 11:08:39;;;;;;;0.77;0.40;;;;;;;;;;5046510;28;20048;-63
2022/03/31 11:11:06;;;;;;;2.22;0.60;;;;;;;;;;5061819;28;20119;-64
2022/03/31 11:13:35;;;;;;;1.05;0.50;;;;;;;;;;5044752;28;20045;-64
2022/03/31 11:16:02;;;;;;;1.08;0.45;;;;;;;;;;5041226;28;20076;-63
2022/03/31 11:18:29;;;;;;;1.15;0.40;;;;;;;;;;5042293;28;20174;-64
2022/03/31 11:20:56;;;;;;;1.48;0.50;;;;;;;;;;5045036;28;20048;-62
2022/03/31 11:23:23;;;;;;;1.40;0.50;;;;;;;;;;5042961;28;20037;-64
2022/03/31 11:25:50;;;;;;;1.48;0.50;;;;;;;;;;5033248;28;20105;-64
2022/03/31 11:28:17;;;;;;;2.33;0.55;;;;;;;;;;5031654;28;20110;-64
2022/03/31 11:30:44;;;;;;;2.75;0.52;;;;;;;;;;5044288;28;20116;-64
2022/03/31 11:33:11;;;;;;;1.48;0.40;;;;;;;;;;5043362;28;20041;-63
2022/03/31 11:35:38;;;;;;;2.38;0.50;;;;;;;;;;5044850;28;20025;-63
2022/03/31 11:38:14;;;;;;;1.23;0.50;;;;;;;;;;5043504;28;20099;-63
2022/03/31 11:40:42;;;;;;;2.25;0.50;;;;;;;;;;5036563;28;20040;-63
2022/03/31 11:43:10;;;;;;;1.90;0.52;;;;;;;;;;5062316;28;20763;-63
2022/03/31 11:45:38;;;;;;;1.60;0.50;;;;;;;;;;5045183;28;20725;-63
2022/03/31 11:48:12;;;;;;;1.80;0.60;;;;;;;;;;5044580;28;20132;-63
2022/03/31 11:50:40;;;;;;;1.50;0.50;;;;;;;;;;5045668;28;20120;-63
2022/03/31 11:53:36;;;;;;;1.75;0.52;;;;;;;;;;5039089;28;20044;-63
2022/03/31 11:56:11;;;;;;;1.10;0.35;;;;;;;;;;5035737;28;20108;-64
2022/03/31 11:58:56;;;;;;;1.13;0.40;;;;;;;;;;5023214;28;20049;-63
2022/03/31 12:01:32;;;;;;;1.38;0.40;;;;;;;;;;5042350;28;20076;-64
2022/03/31 12:03:58;;;;;;;1.02;0.40;;;;;;;;;;5045005;28;20409;-62
2022/03/31 12:06:26;;;;;;;1.25;0.40;;;;;;;;;;5033788;28;20130;-64
2022/03/31 12:08:55;;;;;;;1.27;0.50;;;;;;;;;;5033089;28;20040;-64
2022/03/31 12:11:24;;;;;;;3.28;0.57;;;;;;;;;;5042883;28;20039;-64
2022/03/31 12:14:00;;;;;;;3.30;0.50;;;;;;;;;;5043370;28;20045;-63
2022/03/31 12:16:27;;;;;;;0.63;0.40;;;;;;;;;;5056764;28;20037;-64
2022/03/31 12:18:58;;;;;;;1.27;0.40;;;;;;;;;;5043993;28;20478;-61
2022/03/31 12:21:26;;;;;;;1.17;0.40;;;;;;;;;;5058877;28;20040;-63
2022/03/31 12:23:53;;;;;;;3.90;0.45;;;;;;;;;;5035856;28;20029;-63
2022/03/31 12:26:24;;;;;;;1.08;0.50;;;;;;;;;;5044322;28;20261;-62
2022/03/31 12:28:51;;;;;;;1.58;0.40;;;;;;;;;;5025396;28;20052;-62
2022/03/31 12:31:29;;;;;;;1.00;0.47;;;;;;;;;;5045262;28;20052;-63
2022/03/31 12:33:58;;;;;;;3.83;0.40;;;;;;;;;;5033751;28;20033;-64
2022/03/31 12:36:26;;;;;;;2.35;0.52;;;;;;;;;;5042295;28;20044;-64
2022/03/31 12:38:54;;;;;;;1.33;0.50;;;;;;;;;;5042314;28;20053;-64
2022/03/31 12:41:25;;;;;;;1.17;0.47;;;;;;;;;;5041576;28;20110;-64
2022/03/31 12:44:06;;;;;;;0.82;0.40;;;;;;;;;;5034895;28;20041;-64
2022/03/31 12:46:34;;;;;;;0.73;0.40;;;;;;;;;;5041845;28;20032;-64
2022/03/31 12:49:20;;;;;;;1.58;0.50;;;;;;;;;;5040954;28;20544;-64
2022/03/31 12:51:48;;;;;;;0.88;0.40;;;;;;;;;;5032677;28;20037;-64
2022/03/31 12:54:20;;;;;;;0.93;0.35;;;;;;;;;;5043361;28;20796;-64
2022/03/31 12:56:48;;;;;;;1.55;0.50;;;;;;;;;;5031554;28;20071;-64
2022/03/31 12:59:19;;;;;;;1.42;0.50;;;;;;;;;;5042194;28;20037;-64
2022/03/31 13:01:58;;;;;;;1.55;0.50;;;;;;;;;;5040961;28;20427;-63
2022/03/31 13:04:25;;;;;;;3.15;0.73;;;;;;;;;;5044523;28;20084;-64
2022/03/31 13:06:52;;;;;;;1.67;0.50;;;;;;;;;;5042818;28;20116;-63
2022/03/31 13:09:19;;;;;;;1.55;0.60;;;;;;;;;;5044020;28;20033;-64
2022/03/31 13:11:47;;;;;;;2.08;0.60;;;;;;;;;;5044731;28;20045;-64
2022/03/31 13:14:14;;;;;;;1.52;0.50;;;;;;;;;;5044319;28;20041;-64
2022/03/31 13:16:41;;;;;;;1.02;0.40;;;;;;;;;;5045920;28;20049;-63
2022/03/31 13:19:08;;;;;;;1.73;0.60;;;;;;;;;;5048600;28;20050;-62
2022/03/31 13:21:34;;;;;;;1.80;0.63;;;;;;;;;;5049175;28;20040;-63
2022/03/31 13:24:02;;;;;;;1.67;0.50;;;;;;;;;;5049994;28;20041;-63
2022/03/31 13:26:31;;;;;;;1.15;0.52;;;;;;;;;;5048189;28;20040;-62
2022/03/31 13:28:58;;;;;;;3.72;0.70;;;;;;;;;;5047403;28;20037;-62
2022/03/31 13:31:25;;;;;;;1.73;0.60;;;;;;;;;;5046230;28;20444;-65
2022/03/31 13:33:51;;;;;;;1.83;0.50;;;;;;;;;;5059908;28;20041;-63
2022/03/31 13:36:18;;;;;;;1.38;0.50;;;;;;;;;;5039216;28;20068;-65
2022/03/31 13:38:45;;;;;;;1.55;0.50;;;;;;;;;;5042763;28;20092;-63
2022/03/31 13:41:12;;;;;;;1.65;0.52;;;;;;;;;;5044076;28;20075;-64
2022/03/31 13:43:38;;;;;;;3.40;0.40;;;;;;;;;;5047310;28;20044;-63
2022/03/31 13:46:05;;;;;;;3.00;0.50;;;;;;;;;;5038462;28;20044;-63
2022/03/31 13:48:32;;;;;;;2.90;0.50;;;;;;;;;;5045678;28;20263;-63
2022/03/31 13:50:59;;;;;;;2.22;0.50;;;;;;;;;;5028668;28;20423;-62
2022/03/31 13:53:45;;;;;;;2.13;0.65;;;;;;;;;;5046156;28;20108;-63
2022/03/31 13:56:15;;;;;;;1.67;0.50;;;;;;;;;;5031438;28;20033;-63
2022/03/31 14:01:28;;;;;;;2.65;0.65;;;;;;;;;;5046072;28;20111;-63
2022/03/31 14:03:55;;;;;;;1.90;0.50;;;;;;;;;;5046655;28;20037;-63
2022/03/31 14:06:22;;;;;;;10.88;0.60;;;;;;;;;;5046443;28;20051;-63
2022/03/31 14:08:50;;;;;;;2.38;0.57;;;;;;;;;;5034067;28;20037;-63
2022/03/31 14:11:18;;;;;;;1.50;0.50;;;;;;;;;;5046668;28;20048;-61
2022/03/31 14:13:45;;;;;;;2.45;0.73;;;;;;;;;;5036671;28;20405;-63
2022/03/31 14:16:12;;;;;;;1.27;0.47;;;;;;;;;;5045708;28;20052;-63
2022/03/31 14:18:40;;;;;;;1.38;0.50;;;;;;;;;;5055740;28;20094;-64
2022/03/31 14:21:07;;;;;;;2.20;0.60;;;;;;;;;;5045663;28;20118;-63
2022/03/31 14:23:34;;;;;;;0.90;0.40;;;;;;;;;;5045476;28;20045;-64
2022/03/31 14:26:01;;;;;;;1.85;0.50;;;;;;;;;;5046380;28;20033;-62
2022/03/31 14:28:37;;;;;;;1.25;0.40;;;;;;;;;;5044577;28;20037;-64
2022/03/31 14:31:09;;;;;;;1.35;0.50;;;;;;;;;;5047896;28;20421;-63
2022/03/31 14:33:36;;;;;;;1.02;0.43;;;;;;;;;;5059359;28;20415;-62
2022/03/31 14:36:02;;;;;;;2.35;0.70;;;;;;;;;;5049981;28;20037;-64
2022/03/31 14:38:30;;;;;;;1.55;0.55;;;;;;;;;;5046041;28;20041;-64
2022/03/31 14:40:58;;;;;;;1.73;0.60;;;;;;;;;;5040124;28;20124;-63
2022/03/31 14:43:27;;;;;;;0.95;0.40;;;;;;;;;;5047158;28;20102;-63
2022/03/31 14:45:55;;;;;;;1.05;0.45;;;;;;;;;;5046152;28;20043;-64
2022/03/31 14:48:22;;;;;;;1.20;0.40;;;;;;;;;;5034327;28;20061;-64
2022/03/31 14:50:49;;;;;;;3.50;0.50;;;;;;;;;;5055345;28;20087;-63
2022/03/31 14:53:16;;;;;;;2.97;0.50;;;;;;;;;;5064631;28;20048;-63
2022/03/31 14:55:43;;;;;;;1.38;0.40;;;;;;;;;;5044655;28;20041;-62
2022/03/31 14:58:11;;;;;;;1.67;0.50;;;;;;;;;;5043787;28;20600;-62
2022/03/31 15:00:38;;;;;;;3.10;0.50;;;;;;;;;;5045489;28;20122;-64
2022/03/31 15:03:05;;;;;;;3.00;0.60;;;;;;;;;;5047086;28;20075;-62